createdAt,value
2023-11-27T00:01:10.376Z,14.75
2023-11-27T00:03:39.494Z,13.90
2023-11-27T00:06:08.589Z,13.40
2023-11-27T00:08:36.394Z,13.70
2023-11-27T00:11:07.095Z,12.90
2023-11-27T00:13:34.963Z,14.30
2023-11-27T00:16:03.252Z,13.48
2023-11-27T00:18:32.177Z,13.80
2023-11-27T00:21:00.027Z,13.70
2023-11-27T00:23:27.931Z,13.02
2023-11-27T00:25:56.277Z,13.05
2023-11-27T00:28:25.495Z,13.30
2023-11-27T00:30:53.686Z,13.32
2023-11-27T00:33:21.681Z,12.63
2023-11-27T00:35:49.753Z,12.73
2023-11-27T00:38:17.583Z,12.23
2023-11-27T00:40:47.402Z,12.38
2023-11-27T00:43:15.577Z,12.32
2023-11-27T00:45:44.835Z,12.18
2023-11-27T00:48:12.772Z,12.48
2023-11-27T00:50:40.770Z,12.50
2023-11-27T00:53:09.035Z,11.98
2023-11-27T00:55:36.813Z,11.88
2023-11-27T00:58:04.713Z,12.60
2023-11-27T01:00:32.600Z,12.20
2023-11-27T01:03:02.144Z,11.85
2023-11-27T01:05:30.130Z,12.82
2023-11-27T01:07:57.986Z,12.25
2023-11-27T01:10:25.838Z,11.52
2023-11-27T01:12:53.726Z,12.25
2023-11-27T01:15:22.475Z,10.68
2023-11-27T01:17:50.677Z,11.43
2023-11-27T01:20:20.491Z,11.63
2023-11-27T01:22:48.582Z,11.00
2023-11-27T01:25:16.830Z,11.10
2023-11-27T01:27:45.191Z,10.63
2023-11-27T01:30:13.975Z,10.18
2023-11-27T01:32:43.702Z,11.50
2023-11-27T01:35:11.516Z,10.07
2023-11-27T01:37:40.728Z,10.43
2023-11-27T01:40:09.996Z,10.27
2023-11-27T01:42:37.819Z,10.18
2023-11-27T01:45:06.332Z,10.10
2023-11-27T01:47:34.784Z,10.53
2023-11-27T01:50:03.217Z,10.00
2023-11-27T01:52:31.452Z,11.50
2023-11-27T01:55:00.885Z,10.32
2023-11-27T01:59:57.925Z,10.00
2023-11-27T02:02:26.173Z,10.77
2023-11-27T02:04:54.152Z,10.60
2023-11-27T02:07:22.199Z,10.45
2023-11-27T02:09:50.080Z,10.50
2023-11-27T02:12:19.963Z,10.52
2023-11-27T02:14:50.842Z,10.30
2023-11-27T02:17:19.015Z,10.43
2023-11-27T02:19:46.867Z,10.48
2023-11-27T02:22:14.838Z,10.52
2023-11-27T02:24:44.411Z,10.40
2023-11-27T02:27:12.447Z,9.95
2023-11-27T02:29:40.294Z,10.23
2023-11-27T02:32:08.745Z,9.75
2023-11-27T02:34:36.558Z,8.25
2023-11-27T02:37:04.754Z,9.25
2023-11-27T02:39:32.631Z,9.13
2023-11-27T02:42:02.013Z,9.43
2023-11-27T02:46:57.880Z,8.40
2023-11-27T02:49:25.781Z,8.13
2023-11-27T02:51:53.910Z,8.20
2023-11-27T02:54:21.733Z,8.35
2023-11-27T02:56:49.804Z,8.57
2023-11-27T02:59:19.307Z,8.55
2023-11-27T03:01:48.280Z,8.43
2023-11-27T03:04:16.281Z,8.55
2023-11-27T03:06:43.234Z,8.65
2023-11-27T03:09:11.521Z,8.65
2023-11-27T03:11:39.335Z,8.52
2023-11-27T03:14:08.289Z,7.97
2023-11-27T03:16:37.550Z,8.23
2023-11-27T03:19:05.442Z,8.40
2023-11-27T03:21:33.676Z,8.48
2023-11-27T03:24:01.507Z,8.30
2023-11-27T03:26:29.458Z,8.55
2023-11-27T03:28:57.258Z,8.13
2023-11-27T03:31:25.151Z,8.23
2023-11-27T03:33:54.419Z,8.43
2023-11-27T03:36:22.274Z,8.20
2023-11-27T03:38:50.063Z,9.00
2023-11-27T03:41:22.320Z,9.07
2023-11-27T03:43:50.527Z,9.07
2023-11-27T03:46:18.705Z,8.93
2023-11-27T03:48:46.564Z,8.85
2023-11-27T03:51:15.973Z,9.52
2023-11-27T03:56:11.713Z,8.98
2023-11-27T03:58:39.561Z,10.25
2023-11-27T04:01:07.953Z,9.95
2023-11-27T04:03:39.996Z,10.13
2023-11-27T04:06:08.578Z,10.10
2023-11-27T04:08:39.600Z,10.13
2023-11-27T04:11:14.313Z,10.85
2023-11-27T04:13:42.527Z,10.75
2023-11-27T04:16:11.632Z,10.93
2023-11-27T04:18:39.700Z,12.05
2023-11-27T04:21:08.283Z,11.05
2023-11-27T04:23:37.620Z,11.50
2023-11-27T04:26:06.102Z,11.00
2023-11-27T04:28:34.287Z,11.77
2023-11-27T04:31:02.141Z,11.75
2023-11-27T04:33:30.005Z,11.98
2023-11-27T04:35:57.943Z,11.73
2023-11-27T04:38:25.768Z,12.18
2023-11-27T04:40:55.030Z,11.73
2023-11-27T04:43:23.472Z,11.45
2023-11-27T04:45:51.736Z,12.17
2023-11-27T04:48:20.866Z,11.43
2023-11-27T04:50:48.694Z,11.60
2023-11-27T04:53:16.578Z,13.15
2023-11-27T04:55:44.503Z,12.30
2023-11-27T04:58:13.743Z,12.80
2023-11-27T05:00:41.604Z,12.85
2023-11-27T05:03:09.469Z,12.07
2023-11-27T05:05:37.916Z,12.32
2023-11-27T05:08:06.472Z,13.30
2023-11-27T05:10:40.367Z,13.38
2023-11-27T05:13:08.378Z,12.98
2023-11-27T05:15:37.608Z,12.73
2023-11-27T05:18:05.966Z,12.98
2023-11-27T05:20:33.889Z,13.18
2023-11-27T05:23:02.884Z,12.95
2023-11-27T05:25:30.792Z,12.90
2023-11-27T05:27:58.667Z,13.23
2023-11-27T05:30:26.541Z,12.82
2023-11-27T05:32:55.962Z,12.90
2023-11-27T05:38:01.032Z,12.10
2023-11-27T05:40:29.438Z,11.88
2023-11-27T05:42:57.483Z,11.98
2023-11-27T05:45:25.390Z,12.00
2023-11-27T05:47:53.269Z,12.43
2023-11-27T05:50:23.916Z,11.57
2023-11-27T05:52:52.837Z,11.45
2023-11-27T05:55:21.885Z,11.23
2023-11-27T05:57:49.762Z,12.07
2023-11-27T06:00:18.124Z,11.25
2023-11-27T06:02:46.051Z,10.95
2023-11-27T06:05:16.588Z,10.77
2023-11-27T06:07:46.702Z,11.00
2023-11-27T06:10:15.169Z,10.63
2023-11-27T06:12:43.059Z,10.37
2023-11-27T06:15:15.046Z,10.18
2023-11-27T06:17:42.992Z,9.65
2023-11-27T06:20:13.667Z,9.68
2023-11-27T06:22:41.823Z,9.85
2023-11-27T06:25:12.032Z,9.98
2023-11-27T06:27:39.922Z,10.60
2023-11-27T06:30:12.635Z,9.98
2023-11-27T06:32:41.291Z,9.68
2023-11-27T06:35:12.992Z,10.10
2023-11-27T06:37:41.174Z,9.88
2023-11-27T06:40:13.112Z,10.35
2023-11-27T06:42:41.118Z,9.60
2023-11-27T06:45:10.062Z,9.52
2023-11-27T06:47:38.122Z,9.43
2023-11-27T06:50:07.081Z,8.93
2023-11-27T06:52:34.908Z,9.23
2023-11-27T06:55:03.051Z,9.60
2023-11-27T06:57:32.572Z,9.55
2023-11-27T07:02:30.460Z,9.00
2023-11-27T07:04:58.670Z,9.23
2023-11-27T07:07:26.536Z,9.57
2023-11-27T07:09:57.153Z,9.00
2023-11-27T07:12:25.221Z,9.50
2023-11-27T07:14:54.449Z,9.65
2023-11-27T07:17:23.082Z,8.98
2023-11-27T07:19:51.186Z,10.13
2023-11-27T07:22:19.364Z,9.55
2023-11-27T07:24:47.246Z,9.73
2023-11-27T07:27:16.734Z,9.25
2023-11-27T07:29:44.554Z,9.68
2023-11-27T07:32:13.779Z,9.73
2023-11-27T07:34:42.104Z,9.70
2023-11-27T07:37:09.913Z,9.90
2023-11-27T07:39:38.455Z,10.07
2023-11-27T07:42:07.751Z,9.73
2023-11-27T07:44:35.527Z,9.60
2023-11-27T07:47:03.502Z,9.35
2023-11-27T07:49:32.931Z,9.55
2023-11-27T07:54:29.196Z,8.65
2023-11-27T07:56:57.007Z,9.47
2023-11-27T07:59:27.047Z,8.30
2023-11-27T08:01:55.165Z,8.70
2023-11-27T08:04:23.024Z,8.50
2023-11-27T08:06:52.258Z,8.38
2023-11-27T08:09:20.638Z,7.50
2023-11-27T08:11:48.517Z,7.00
2023-11-27T08:14:18.445Z,7.10
2023-11-27T08:16:47.325Z,7.93
2023-11-27T08:19:18.137Z,7.90
2023-11-27T08:21:46.593Z,7.47
2023-11-27T08:24:15.867Z,7.97
2023-11-27T08:26:50.308Z,6.93
2023-11-27T08:29:19.275Z,7.70
2023-11-27T08:31:47.331Z,8.65
2023-11-27T08:34:15.434Z,9.23
2023-11-27T08:36:44.497Z,9.40
2023-11-27T08:39:15.628Z,9.38
2023-11-27T08:41:44.076Z,9.40
2023-11-27T08:44:12.147Z,9.03
2023-11-27T08:46:40.111Z,8.63
2023-11-27T08:49:08.489Z,8.70
2023-11-27T08:51:36.295Z,8.38
2023-11-27T08:54:04.310Z,8.32
2023-11-27T08:56:35.091Z,8.10
2023-11-27T08:59:03.061Z,8.15
2023-11-27T09:01:31.038Z,7.68
2023-11-27T09:03:58.958Z,7.97
2023-11-27T09:06:26.799Z,7.40
2023-11-27T09:08:54.822Z,7.88
2023-11-27T09:11:24.249Z,9.50
2023-11-27T09:13:55.520Z,7.53
2023-11-27T09:16:23.424Z,7.47
2023-11-27T09:18:51.571Z,7.28
2023-11-27T09:21:19.503Z,6.93
2023-11-27T09:23:47.381Z,6.97
2023-11-27T09:26:15.732Z,7.07
2023-11-27T09:28:44.568Z,6.68
2023-11-27T09:31:13.859Z,6.85
2023-11-27T09:36:16.287Z,5.60
2023-11-27T09:38:44.590Z,6.50
2023-11-27T09:41:13.829Z,6.28
2023-11-27T09:46:20.985Z,5.70
2023-11-27T09:51:21.587Z,6.65
2023-11-27T09:53:52.763Z,6.15
2023-11-27T09:56:28.233Z,6.22
2023-11-27T09:59:00.807Z,6.25
2023-11-27T10:01:31.080Z,6.15
2023-11-27T10:04:00.820Z,5.43
2023-11-27T10:06:33.648Z,5.97
2023-11-27T10:09:08.817Z,6.20
2023-11-27T10:11:38.031Z,6.30
2023-11-27T10:14:29.935Z,7.43
2023-11-27T10:17:00.128Z,6.43
2023-11-27T10:19:28.408Z,6.40
2023-11-27T10:21:58.262Z,6.70
2023-11-27T10:24:26.180Z,6.45
2023-11-27T10:26:54.105Z,5.80
2023-11-27T10:29:28.661Z,5.43
2023-11-27T10:31:59.393Z,5.65
2023-11-27T10:34:27.996Z,5.75
2023-11-27T10:36:58.948Z,6.27
2023-11-27T10:39:29.922Z,6.15
2023-11-27T10:41:58.650Z,6.13
2023-11-27T10:44:27.543Z,4.88
2023-11-27T10:46:57.121Z,6.03
2023-11-27T10:49:25.572Z,5.32
2023-11-27T10:51:55.644Z,5.13
2023-11-27T10:54:26.214Z,5.00
2023-11-27T10:56:58.149Z,5.00
2023-11-27T10:59:27.468Z,4.95
2023-11-27T11:02:03.252Z,8.27
2023-11-27T11:04:37.788Z,21.67
2023-11-27T11:07:12.935Z,5.28
2023-11-27T11:09:45.489Z,4.88
2023-11-27T11:12:14.062Z,4.40
2023-11-27T11:14:43.774Z,4.63
2023-11-27T11:17:19.256Z,8.95
2023-11-27T11:20:01.908Z,7.28
2023-11-27T11:22:40.832Z,4.85
2023-11-27T11:25:16.734Z,4.75
2023-11-27T11:27:51.844Z,4.55
2023-11-27T11:30:21.428Z,4.93
2023-11-27T11:32:53.266Z,4.30
2023-11-27T11:35:22.380Z,4.57
2023-11-27T11:37:51.495Z,4.20
2023-11-27T11:40:20.297Z,4.90
2023-11-27T11:42:51.211Z,4.82
2023-11-27T11:45:25.746Z,4.05
2023-11-27T11:47:58.938Z,4.65
2023-11-27T11:50:31.553Z,4.25
2023-11-27T11:53:04.483Z,5.00
2023-11-27T11:55:34.548Z,4.63
2023-11-27T11:58:07.690Z,4.70
2023-11-27T12:00:46.104Z,5.07
2023-11-27T12:03:18.372Z,5.70
2023-11-27T12:05:51.856Z,5.38
2023-11-27T12:08:20.610Z,5.47
2023-11-27T12:10:48.508Z,5.33
2023-11-27T12:13:16.480Z,5.43
2023-11-27T12:15:44.379Z,5.50
2023-11-27T12:18:14.153Z,5.35
2023-11-27T12:20:44.045Z,4.95
2023-11-27T12:23:13.845Z,6.00
2023-11-27T12:25:42.656Z,6.20
2023-11-27T12:28:10.747Z,5.80
2023-11-27T12:30:39.749Z,6.53
2023-11-27T12:33:10.433Z,6.63
2023-11-27T12:35:39.738Z,5.85
2023-11-27T12:38:09.323Z,6.18
2023-11-27T12:40:37.625Z,6.55
2023-11-27T12:43:08.159Z,6.28
2023-11-27T12:45:38.016Z,7.03
2023-11-27T12:48:08.957Z,5.97
2023-11-27T12:50:40.997Z,7.05
2023-11-27T12:53:10.910Z,6.55
2023-11-27T12:55:40.521Z,6.70
2023-11-27T12:58:15.707Z,6.70
2023-11-27T13:00:47.269Z,6.50
2023-11-27T13:05:44.806Z,8.00
2023-11-27T13:08:14.173Z,7.72
2023-11-27T13:13:12.832Z,5.47
2023-11-27T13:15:40.826Z,6.53
2023-11-27T13:18:13.615Z,6.72
2023-11-27T13:20:41.724Z,6.75
2023-11-27T13:23:09.782Z,6.80
2023-11-27T13:25:39.131Z,6.82
2023-11-27T13:30:37.056Z,5.80
2023-11-27T13:33:12.252Z,6.32
2023-11-27T13:35:42.051Z,6.18
2023-11-27T13:38:16.320Z,5.97
2023-11-27T13:40:49.113Z,6.20
2023-11-27T13:43:18.782Z,5.70
2023-11-27T13:45:50.004Z,5.57
2023-11-27T13:48:22.889Z,6.03
2023-11-27T13:50:52.101Z,4.80
2023-11-27T13:53:25.616Z,4.63
2023-11-27T13:55:57.228Z,5.28
2023-11-27T13:58:27.693Z,4.95
2023-11-27T14:00:57.818Z,5.28
2023-11-27T14:03:27.631Z,4.82
2023-11-27T14:05:57.406Z,4.57
2023-11-27T14:08:41.098Z,5.43
2023-11-27T14:11:30.214Z,5.10
2023-11-27T14:14:06.295Z,4.72
2023-11-27T14:16:43.792Z,4.95
2023-11-27T14:19:29.439Z,5.53
2023-11-27T14:22:15.117Z,4.30
2023-11-27T14:24:58.284Z,4.68
2023-11-27T14:27:40.073Z,5.60
2023-11-27T14:30:13.887Z,5.30
2023-11-27T14:32:42.410Z,5.20
2023-11-27T14:35:10.564Z,5.67
2023-11-27T14:37:39.718Z,5.05
2023-11-27T14:40:20.764Z,5.53
2023-11-27T14:42:51.879Z,6.65
2023-11-27T14:45:19.974Z,7.70
2023-11-27T14:47:48.158Z,6.60
2023-11-27T14:50:21.629Z,7.25
2023-11-27T14:52:51.306Z,7.38
2023-11-27T14:55:21.227Z,6.68
2023-11-27T14:57:50.797Z,7.00
2023-11-27T15:00:27.428Z,6.50
2023-11-27T15:02:56.340Z,6.40
2023-11-27T15:05:30.118Z,6.28
2023-11-27T15:08:00.800Z,6.53
2023-11-27T15:10:29.456Z,6.78
2023-11-27T15:12:59.056Z,6.65
2023-11-27T15:15:27.556Z,6.70
2023-11-27T15:17:55.891Z,7.93
2023-11-27T15:20:24.569Z,7.07
2023-11-27T15:22:55.247Z,7.72
2023-11-27T15:25:24.700Z,8.65
2023-11-27T15:30:23.726Z,7.13
2023-11-27T15:32:51.844Z,7.00
2023-11-27T15:35:20.936Z,7.00
2023-11-27T15:37:49.389Z,6.32
2023-11-27T15:40:21.613Z,5.93
2023-11-27T15:42:50.124Z,7.13
2023-11-27T15:45:18.178Z,5.03
2023-11-27T15:47:48.129Z,5.38
2023-11-27T15:50:16.139Z,5.30
2023-11-27T15:52:47.316Z,5.32
2023-11-27T15:55:16.046Z,5.10
2023-11-27T15:57:45.247Z,5.25
2023-11-27T16:00:16.031Z,5.70
2023-11-27T16:02:44.148Z,6.18
2023-11-27T16:05:13.899Z,6.38
2023-11-27T16:07:42.681Z,6.32
2023-11-27T16:10:15.971Z,6.78
2023-11-27T16:12:44.670Z,7.13
2023-11-27T16:15:13.863Z,6.80
2023-11-27T16:20:18.402Z,7.45
2023-11-27T16:22:46.959Z,8.02
2023-11-27T16:25:17.437Z,8.00
2023-11-27T16:27:47.149Z,7.72
2023-11-27T16:30:19.075Z,7.15
2023-11-27T16:32:47.139Z,6.47
2023-11-27T16:35:23.005Z,10.75
2023-11-27T16:37:52.663Z,6.32
2023-11-27T16:40:22.062Z,6.35
2023-11-27T16:42:52.662Z,6.97
2023-11-27T16:45:23.702Z,7.28
2023-11-27T16:47:52.956Z,6.93
2023-11-27T16:50:25.860Z,7.15
2023-11-27T16:52:56.120Z,6.65
2023-11-27T16:55:26.068Z,6.65
2023-11-27T16:57:55.285Z,7.00
2023-11-27T17:00:25.333Z,7.15
2023-11-27T17:02:54.364Z,7.13
2023-11-27T17:05:24.655Z,7.50
2023-11-27T17:07:52.623Z,7.63
2023-11-27T17:10:22.818Z,7.90
2023-11-27T17:12:51.587Z,8.15
2023-11-27T17:15:20.156Z,8.02
2023-11-27T17:17:51.388Z,8.18
2023-11-27T17:20:22.576Z,8.38
2023-11-27T17:23:03.718Z,7.60
2023-11-27T17:25:36.512Z,7.38
2023-11-27T17:28:07.935Z,7.38
2023-11-27T17:30:37.912Z,7.75
2023-11-27T17:33:06.409Z,9.25
2023-11-27T17:35:36.611Z,7.97
2023-11-27T17:38:07.660Z,8.00
2023-11-27T17:40:36.821Z,8.13
2023-11-27T17:43:04.813Z,9.10
2023-11-27T17:45:33.054Z,9.20
2023-11-27T17:48:02.402Z,8.93
2023-11-27T17:53:00.217Z,8.50
2023-11-27T17:55:38.966Z,8.50
2023-11-27T17:58:15.226Z,9.38
2023-11-27T18:00:47.325Z,8.98
2023-11-27T18:03:15.982Z,9.43
2023-11-27T18:05:44.146Z,9.80
2023-11-27T18:08:13.110Z,9.77
2023-11-27T18:10:42.645Z,11.02
2023-11-27T18:13:11.471Z,10.77
2023-11-27T18:15:39.447Z,11.80
2023-11-27T18:18:07.572Z,10.57
2023-11-27T18:20:36.967Z,10.63
2023-11-27T18:23:04.859Z,9.85
2023-11-27T18:25:32.840Z,10.40
2023-11-27T18:28:02.137Z,10.63
2023-11-27T18:30:31.444Z,9.85
2023-11-27T18:35:28.524Z,9.38
2023-11-27T18:37:56.713Z,8.97
2023-11-27T18:40:24.826Z,10.05
2023-11-27T18:42:53.871Z,9.40
2023-11-27T18:45:25.044Z,10.48
2023-11-27T18:47:53.103Z,10.68
2023-11-27T18:50:21.306Z,10.95
2023-11-27T18:52:49.771Z,11.75
2023-11-27T18:55:18.034Z,11.85
2023-11-27T18:57:48.290Z,11.05
2023-11-27T19:00:19.148Z,11.43
2023-11-27T19:02:48.594Z,10.88
2023-11-27T19:05:16.910Z,11.35
2023-11-27T19:07:44.933Z,10.57
2023-11-27T19:10:13.221Z,10.25
2023-11-27T19:12:41.836Z,9.18
2023-11-27T19:15:10.449Z,9.93
2023-11-27T19:17:38.508Z,9.00
2023-11-27T19:20:12.236Z,8.93
2023-11-27T19:22:40.541Z,8.52
2023-11-27T19:25:11.909Z,9.05
2023-11-27T19:27:40.248Z,9.38
2023-11-27T19:30:09.950Z,8.30
2023-11-27T19:32:38.325Z,8.25
2023-11-27T19:35:09.529Z,8.95
2023-11-27T19:37:37.545Z,8.02
2023-11-27T19:40:06.556Z,8.50
2023-11-27T19:42:34.933Z,8.10
2023-11-27T19:45:03.061Z,8.55
2023-11-27T19:47:31.165Z,8.18
2023-11-27T19:49:59.218Z,8.07
2023-11-27T19:52:28.771Z,8.65
2023-11-27T19:54:56.670Z,7.43
2023-11-27T19:57:24.569Z,7.35
2023-11-27T19:59:55.104Z,7.13
2023-11-27T20:02:23.658Z,6.70
2023-11-27T20:04:51.641Z,6.78
2023-11-27T20:07:19.762Z,6.80
2023-11-27T20:09:49.079Z,6.63
2023-11-27T20:12:16.954Z,7.03
2023-11-27T20:14:44.996Z,6.55
2023-11-27T20:17:13.142Z,7.40
2023-11-27T20:19:41.489Z,7.55
2023-11-27T20:22:09.693Z,6.93
2023-11-27T20:24:37.747Z,6.75
2023-11-27T20:27:07.552Z,7.57
2023-11-27T20:29:36.923Z,7.03
2023-11-27T20:34:33.107Z,6.57
2023-11-27T20:37:00.996Z,6.63
2023-11-27T20:39:29.648Z,6.85
2023-11-27T20:41:57.561Z,7.00
2023-11-27T20:44:27.676Z,7.20
2023-11-27T20:46:55.686Z,7.72
2023-11-27T20:49:23.787Z,7.45
2023-11-27T20:51:52.170Z,6.93
2023-11-27T20:54:20.022Z,7.35
2023-11-27T20:56:47.931Z,9.15
2023-11-27T20:59:16.112Z,7.95
2023-11-27T21:01:45.551Z,8.43
2023-11-27T21:04:13.794Z,7.78
2023-11-27T21:06:41.736Z,8.18
2023-11-27T21:09:11.661Z,7.68
2023-11-27T21:11:39.552Z,7.88
2023-11-27T21:14:07.533Z,8.20
2023-11-27T21:16:38.446Z,7.85
2023-11-27T21:19:08.863Z,7.78
2023-11-27T21:21:36.945Z,7.50
2023-11-27T21:24:05.514Z,7.53
2023-11-27T21:26:33.613Z,7.53
2023-11-27T21:29:02.070Z,7.43
2023-11-27T21:31:31.807Z,7.60
2023-11-27T21:34:01.227Z,7.25
2023-11-27T21:36:30.682Z,7.65
2023-11-27T21:41:30.609Z,5.88
2023-11-27T21:43:58.583Z,5.93
2023-11-27T21:46:26.591Z,6.20
2023-11-27T21:48:55.485Z,6.75
2023-11-27T21:51:23.369Z,6.00
2023-11-27T21:53:53.723Z,5.65
2023-11-27T21:56:21.841Z,5.13
2023-11-27T21:58:49.777Z,5.45
2023-11-27T22:01:18.177Z,4.90
2023-11-27T22:03:46.607Z,4.53
2023-11-27T22:06:14.626Z,4.20
2023-11-27T22:08:42.464Z,4.28
2023-11-27T22:11:11.933Z,4.10
2023-11-27T22:13:39.985Z,3.65
2023-11-27T22:16:08.867Z,3.70
2023-11-27T22:18:36.685Z,3.50
2023-11-27T22:21:04.892Z,3.15
2023-11-27T22:23:32.768Z,3.10
2023-11-27T22:26:01.089Z,3.10
2023-11-27T22:28:30.374Z,2.72
2023-11-27T22:30:58.437Z,2.80
2023-11-27T22:33:26.914Z,3.58
2023-11-27T22:35:55.249Z,3.23
2023-11-27T22:38:23.217Z,3.22
2023-11-27T22:40:51.160Z,4.00
2023-11-27T22:43:19.134Z,4.10
2023-11-27T22:45:48.360Z,4.30
2023-11-27T22:48:16.213Z,4.30
2023-11-27T22:50:44.138Z,4.28
2023-11-27T22:53:11.970Z,4.70
2023-11-27T22:55:39.781Z,4.80
2023-11-27T22:58:07.997Z,4.70
2023-11-27T23:00:35.830Z,4.90
2023-11-27T23:03:06.247Z,4.43
2023-11-27T23:05:34.604Z,4.63
2023-11-27T23:08:02.474Z,4.65
2023-11-27T23:10:30.896Z,4.60
2023-11-27T23:13:00.083Z,4.77
2023-11-27T23:15:28.842Z,4.72
2023-11-27T23:17:56.725Z,4.80
2023-11-27T23:20:26.041Z,4.88
2023-11-27T23:22:54.174Z,4.78
2023-11-27T23:25:22.176Z,5.10
2023-11-27T23:27:50.092Z,4.53
2023-11-27T23:30:18.053Z,4.63
2023-11-27T23:32:46.050Z,4.78
2023-11-27T23:35:14.012Z,4.80
2023-11-27T23:37:43.314Z,4.85
2023-11-27T23:40:11.967Z,4.90
2023-11-27T23:42:40.074Z,5.30
2023-11-27T23:45:08.779Z,5.28
2023-11-27T23:47:36.726Z,4.93
2023-11-27T23:50:05.142Z,5.38
2023-11-27T23:52:33.599Z,5.10
2023-11-27T23:55:06.432Z,5.43
2023-11-27T23:57:34.505Z,5.70
